Athens Eleftherios, Greece

7:07 PM EET on March 02, 2015 (GMT +0200)
Agios Nikolaos, Spata-19004, Athens (GR) | Change Station
CLOSE
Current Station
Personal Weather Station
Location: Σπάτα, Αττική
Elevation: 446 ft
Nearby Weather Stations

Elev 446 ft 37.98 °N, 23.90 °E | Updated 28 seconds ago

Scattered Clouds
Scattered Clouds
54.5 °F
Feels Like 54.5 °F
N
8.0
Wind Variable Wind from WSW
Gusts 10.0 mph

Today
High -- | Low -- °F
--% Chance of Precip.
Yesterday
High -- | Low -- °F
Precip. -- in
6:55 AM 6:18 PM
Waxing Gibbous, 92% visible
Pressure 30.04 in
Visibility 6.2 miles
Clouds Scattered Clouds 2500 ft
Dew Point 48 °F
Humidity 78%
Rainfall 0.00 in
Snow Depth Not available.
UV 0.0 out of 12
Pollen Not available.
Air Quality Not available.
Flu Activity Not available.
METAR LGAV 021550Z 21013KT 9999 SCT025 14/08 Q1017 NOSIG

More Conditions Fewer Conditions

Pressure 30.04 in
Visibility 6.2 miles
Clouds Scattered Clouds 2500 ft
Dew Point 48 °F
Humidity 78%
Rainfall 0.00 in
Snow Depth Not available.
UV 0.0 out of 12
Pollen Not available.
Air Quality Not available.
Flu Activity Not available.
METAR LGAV 021550Z 21013KT 9999 SCT025 14/08 Q1017 NOSIG

More Conditions Fewer Conditions

10-Day Weather Forecast

Almanac

Astronomy

Mar. 02, 2015 Rise Set
Actual Time
Civil Twilight
Nautical Twilight
Astronomical Twilight
Moon
Length of Visible Light
Length of Day
Tomorrow will be .
, % of the Moon is Illuminated

Today's Extremes

Country Highs Country Lows

Community

WunderPhotos

Upload Photos

1,801,852 photos uploaded!

WunderBlogs® & News

Nearby

Air Quality

  Air Quality AQ Index Pollutant
Not available.

Snow Depth

Station Depth Elevation

Earthquake Activity

City Distance Mag. Time & Date
Minimum magnitude displayed is 2.5.

Coastal Water Temperatures

Place Temperature

Nearby Weather Stations